sensor_id;sensor_type;location;lat;lon;timestamp;temperature;humidity
34833;DHT22;55941;50.800;4.342;2022-11-20T00:00:53;5.40;99.90
34833;DHT22;55941;50.800;4.342;2022-11-20T00:03:19;5.40;99.90
34833;DHT22;55941;50.800;4.342;2022-11-20T00:05:45;5.30;99.90
34833;DHT22;55941;50.800;4.342;2022-11-20T00:08:11;5.50;99.90
34833;DHT22;55941;50.800;4.342;2022-11-20T00:10:37;5.40;99.90
34833;DHT22;55941;50.800;4.342;2022-11-20T00:13:04;5.40;99.90
34833;DHT22;55941;50.800;4.342;2022-11-20T00:15:30;5.30;99.90
34833;DHT22;55941;50.800;4.342;2022-11-20T00:17:56;5.40;99.90
34833;DHT22;55941;50.800;4.342;2022-11-20T00:20:22;5.60;99.90
34833;DHT22;55941;50.800;4.342;2022-11-20T00:22:47;5.50;99.90
34833;DHT22;55941;50.800;4.342;2022-11-20T00:25:13;5.50;99.90
34833;DHT22;55941;50.800;4.342;2022-11-20T00:27:39;5.50;99.90
34833;DHT22;55941;50.800;4.342;2022-11-20T00:30:06;5.60;99.90
34833;DHT22;55941;50.800;4.342;2022-11-20T00:32:32;5.50;99.90
34833;DHT22;55941;50.800;4.342;2022-11-20T00:34:58;5.50;99.90
34833;DHT22;55941;50.800;4.342;2022-11-20T00:37:25;5.40;99.90
34833;DHT22;55941;50.800;4.342;2022-11-20T00:39:51;5.40;99.90
34833;DHT22;55941;50.800;4.342;2022-11-20T00:42:17;5.50;99.90
34833;DHT22;55941;50.800;4.342;2022-11-20T00:44:43;5.40;99.90
34833;DHT22;55941;50.800;4.342;2022-11-20T00:47:08;5.40;99.90
34833;DHT22;55941;50.800;4.342;2022-11-20T00:49:34;5.40;99.90
34833;DHT22;55941;50.800;4.342;2022-11-20T00:52:00;5.50;99.90
34833;DHT22;55941;50.800;4.342;2022-11-20T00:54:26;5.30;99.90
34833;DHT22;55941;50.800;4.342;2022-11-20T00:56:55;5.30;99.90
34833;DHT22;55941;50.800;4.342;2022-11-20T00:59:21;5.30;99.90
34833;DHT22;55941;50.800;4.342;2022-11-20T01:01:48;5.20;99.90
34833;DHT22;55941;50.800;4.342;2022-11-20T01:04:13;5.30;99.90
34833;DHT22;55941;50.800;4.342;2022-11-20T01:06:39;5.20;99.90
34833;DHT22;55941;50.800;4.342;2022-11-20T01:09:11;5.20;99.90
34833;DHT22;55941;50.800;4.342;2022-11-20T01:11:43;5.30;99.90
34833;DHT22;55941;50.800;4.342;2022-11-20T01:14:15;5.20;99.90
34833;DHT22;55941;50.800;4.342;2022-11-20T01:16:47;5.20;99.90
34833;DHT22;55941;50.800;4.342;2022-11-20T01:19:16;5.40;99.90
34833;DHT22;55941;50.800;4.342;2022-11-20T01:21:44;5.30;99.90
34833;DHT22;55941;50.800;4.342;2022-11-20T01:24:12;5.40;99.90
34833;DHT22;55941;50.800;4.342;2022-11-20T01:26:41;5.20;99.90
34833;DHT22;55941;50.800;4.342;2022-11-20T01:29:13;5.10;99.90
34833;DHT22;55941;50.800;4.342;2022-11-20T01:31:39;5.10;99.90
34833;DHT22;55941;50.800;4.342;2022-11-20T01:34:17;5.20;99.90
34833;DHT22;55941;50.800;4.342;2022-11-20T01:36:44;5.30;99.90
34833;DHT22;55941;50.800;4.342;2022-11-20T01:39:13;5.30;99.90
34833;DHT22;55941;50.800;4.342;2022-11-20T01:41:40;5.30;99.90
34833;DHT22;55941;50.800;4.342;2022-11-20T01:44:48;5.30;99.90
34833;DHT22;55941;50.800;4.342;2022-11-20T01:47:21;5.30;99.90
34833;DHT22;55941;50.800;4.342;2022-11-20T01:49:52;5.20;99.90
34833;DHT22;55941;50.800;4.342;2022-11-20T01:52:24;5.10;99.90
34833;DHT22;55941;50.800;4.342;2022-11-20T01:55:00;5.20;99.90
34833;DHT22;55941;50.800;4.342;2022-11-20T01:57:29;5.40;99.90
34833;DHT22;55941;50.800;4.342;2022-11-20T02:00:03;5.30;99.90
34833;DHT22;55941;50.800;4.342;2022-11-20T02:02:29;5.30;99.90
34833;DHT22;55941;50.800;4.342;2022-11-20T02:05:00;5.40;99.90
34833;DHT22;55941;50.800;4.342;2022-11-20T02:07:28;5.40;99.90
34833;DHT22;55941;50.800;4.342;2022-11-20T02:09:55;5.30;99.90
34833;DHT22;55941;50.800;4.342;2022-11-20T02:12:20;5.20;99.90
34833;DHT22;55941;50.800;4.342;2022-11-20T02:15:05;5.20;99.90
34833;DHT22;55941;50.800;4.342;2022-11-20T02:17:31;5.20;99.90
34833;DHT22;55941;50.800;4.342;2022-11-20T02:19:57;5.20;99.90
34833;DHT22;55941;50.800;4.342;2022-11-20T02:22:28;5.20;99.90
34833;DHT22;55941;50.800;4.342;2022-11-20T02:24:59;5.10;99.90
34833;DHT22;55941;50.800;4.342;2022-11-20T02:27:26;5.30;99.90
34833;DHT22;55941;50.800;4.342;2022-11-20T02:30:00;5.20;99.90
34833;DHT22;55941;50.800;4.342;2022-11-20T02:32:30;5.10;99.90
34833;DHT22;55941;50.800;4.342;2022-11-20T02:34:57;5.10;99.90
34833;DHT22;55941;50.800;4.342;2022-11-20T02:37:23;5.10;99.90
34833;DHT22;55941;50.800;4.342;2022-11-20T02:39:51;5.10;99.90
34833;DHT22;55941;50.800;4.342;2022-11-20T02:42:17;5.10;99.90
34833;DHT22;55941;50.800;4.342;2022-11-20T02:44:43;5.10;99.90
34833;DHT22;55941;50.800;4.342;2022-11-20T02:47:09;5.10;99.90
34833;DHT22;55941;50.800;4.342;2022-11-20T02:49:35;5.10;99.90
34833;DHT22;55941;50.800;4.342;2022-11-20T02:52:01;5.10;99.90
34833;DHT22;55941;50.800;4.342;2022-11-20T02:54:27;5.10;99.90
34833;DHT22;55941;50.800;4.342;2022-11-20T02:56:53;5.10;99.90
34833;DHT22;55941;50.800;4.342;2022-11-20T02:59:19;5.20;99.90
34833;DHT22;55941;50.800;4.342;2022-11-20T03:01:45;5.10;99.90
34833;DHT22;55941;50.800;4.342;2022-11-20T03:04:11;5.10;99.90
34833;DHT22;55941;50.800;4.342;2022-11-20T03:06:36;5.20;99.90
34833;DHT22;55941;50.800;4.342;2022-11-20T03:09:03;5.00;99.90
34833;DHT22;55941;50.800;4.342;2022-11-20T03:11:29;5.20;99.90
34833;DHT22;55941;50.800;4.342;2022-11-20T03:13:55;5.20;99.90
34833;DHT22;55941;50.800;4.342;2022-11-20T03:16:23;5.20;99.90
34833;DHT22;55941;50.800;4.342;2022-11-20T03:18:51;5.10;99.90
34833;DHT22;55941;50.800;4.342;2022-11-20T03:21:18;5.40;99.90
34833;DHT22;55941;50.800;4.342;2022-11-20T03:23:45;5.20;99.90
34833;DHT22;55941;50.800;4.342;2022-11-20T03:26:14;5.20;99.90
34833;DHT22;55941;50.800;4.342;2022-11-20T03:28:42;5.10;99.90
34833;DHT22;55941;50.800;4.342;2022-11-20T03:31:13;5.20;99.90
34833;DHT22;55941;50.800;4.342;2022-11-20T03:33:40;5.50;99.90
34833;DHT22;55941;50.800;4.342;2022-11-20T03:36:11;5.40;99.90
34833;DHT22;55941;50.800;4.342;2022-11-20T03:38:38;5.40;99.90
34833;DHT22;55941;50.800;4.342;2022-11-20T03:41:07;5.30;99.90
34833;DHT22;55941;50.800;4.342;2022-11-20T03:43:34;5.20;99.90
34833;DHT22;55941;50.800;4.342;2022-11-20T03:46:00;5.20;99.90
34833;DHT22;55941;50.800;4.342;2022-11-20T03:48:27;5.10;99.90
34833;DHT22;55941;50.800;4.342;2022-11-20T03:50:54;5.20;99.90
34833;DHT22;55941;50.800;4.342;2022-11-20T03:53:31;5.20;99.90
34833;DHT22;55941;50.800;4.342;2022-11-20T03:55:57;5.20;99.90
34833;DHT22;55941;50.800;4.342;2022-11-20T03:58:23;5.30;99.90
34833;DHT22;55941;50.800;4.342;2022-11-20T04:00:49;5.30;99.90
34833;DHT22;55941;50.800;4.342;2022-11-20T04:03:15;5.40;99.90
34833;DHT22;55941;50.800;4.342;2022-11-20T04:05:41;5.40;99.90
34833;DHT22;55941;50.800;4.342;2022-11-20T04:08:07;5.30;99.90
34833;DHT22;55941;50.800;4.342;2022-11-20T04:10:32;5.30;99.90
34833;DHT22;55941;50.800;4.342;2022-11-20T04:12:58;5.30;99.90
34833;DHT22;55941;50.800;4.342;2022-11-20T04:15:23;5.30;99.90
34833;DHT22;55941;50.800;4.342;2022-11-20T04:17:49;5.40;99.90
34833;DHT22;55941;50.800;4.342;2022-11-20T04:20:15;5.40;99.90
34833;DHT22;55941;50.800;4.342;2022-11-20T04:22:41;5.50;99.90
34833;DHT22;55941;50.800;4.342;2022-11-20T04:25:07;5.40;99.90
34833;DHT22;55941;50.800;4.342;2022-11-20T04:27:33;5.40;99.90
34833;DHT22;55941;50.800;4.342;2022-11-20T04:29:58;5.50;99.90
34833;DHT22;55941;50.800;4.342;2022-11-20T04:32:24;5.40;99.90
34833;DHT22;55941;50.800;4.342;2022-11-20T04:34:50;5.50;99.90
34833;DHT22;55941;50.800;4.342;2022-11-20T04:37:16;5.50;99.90
34833;DHT22;55941;50.800;4.342;2022-11-20T04:39:42;5.50;99.90
34833;DHT22;55941;50.800;4.342;2022-11-20T04:42:09;5.50;99.90
34833;DHT22;55941;50.800;4.342;2022-11-20T04:44:53;5.70;99.90
34833;DHT22;55941;50.800;4.342;2022-11-20T04:47:19;5.50;99.90
34833;DHT22;55941;50.800;4.342;2022-11-20T04:49:45;5.40;99.90
34833;DHT22;55941;50.800;4.342;2022-11-20T04:52:11;5.30;99.90
34833;DHT22;55941;50.800;4.342;2022-11-20T04:54:37;5.40;99.90
34833;DHT22;55941;50.800;4.342;2022-11-20T04:57:03;5.30;99.90
34833;DHT22;55941;50.800;4.342;2022-11-20T04:59:29;5.30;99.90
34833;DHT22;55941;50.800;4.342;2022-11-20T05:01:56;5.20;99.90
34833;DHT22;55941;50.800;4.342;2022-11-20T05:04:22;5.20;99.90
34833;DHT22;55941;50.800;4.342;2022-11-20T05:06:49;5.20;99.90
34833;DHT22;55941;50.800;4.342;2022-11-20T05:09:15;5.40;99.90
34833;DHT22;55941;50.800;4.342;2022-11-20T05:11:41;5.40;99.90
34833;DHT22;55941;50.800;4.342;2022-11-20T05:14:07;5.40;99.90
34833;DHT22;55941;50.800;4.342;2022-11-20T05:16:34;5.50;99.90
34833;DHT22;55941;50.800;4.342;2022-11-20T05:19:01;5.50;99.90
34833;DHT22;55941;50.800;4.342;2022-11-20T05:21:29;5.50;99.90
34833;DHT22;55941;50.800;4.342;2022-11-20T05:23:55;5.50;99.90
34833;DHT22;55941;50.800;4.342;2022-11-20T05:26:22;5.80;99.90
34833;DHT22;55941;50.800;4.342;2022-11-20T05:28:49;5.70;99.90
34833;DHT22;55941;50.800;4.342;2022-11-20T05:31:19;5.70;99.90
34833;DHT22;55941;50.800;4.342;2022-11-20T05:33:46;5.70;99.90
34833;DHT22;55941;50.800;4.342;2022-11-20T05:36:14;5.60;99.90
34833;DHT22;55941;50.800;4.342;2022-11-20T05:38:40;5.70;99.90
34833;DHT22;55941;50.800;4.342;2022-11-20T05:41:08;5.80;99.90
34833;DHT22;55941;50.800;4.342;2022-11-20T05:43:36;5.80;99.90
34833;DHT22;55941;50.800;4.342;2022-11-20T05:46:05;5.90;99.90
34833;DHT22;55941;50.800;4.342;2022-11-20T05:48:33;5.90;99.90
34833;DHT22;55941;50.800;4.342;2022-11-20T05:51:00;5.70;99.90
34833;DHT22;55941;50.800;4.342;2022-11-20T05:53:27;5.60;99.90
34833;DHT22;55941;50.800;4.342;2022-11-20T05:56:03;5.50;99.90
34833;DHT22;55941;50.800;4.342;2022-11-20T05:58:29;5.50;99.90
34833;DHT22;55941;50.800;4.342;2022-11-20T06:01:02;5.60;99.90
34833;DHT22;55941;50.800;4.342;2022-11-20T06:03:29;5.50;99.90
34833;DHT22;55941;50.800;4.342;2022-11-20T06:05:55;5.60;99.90
34833;DHT22;55941;50.800;4.342;2022-11-20T06:08:21;5.60;99.90
34833;DHT22;55941;50.800;4.342;2022-11-20T06:10:47;5.50;99.90
34833;DHT22;55941;50.800;4.342;2022-11-20T06:13:13;5.50;99.90
34833;DHT22;55941;50.800;4.342;2022-11-20T06:15:39;5.60;99.90
34833;DHT22;55941;50.800;4.342;2022-11-20T06:18:05;5.60;99.90
34833;DHT22;55941;50.800;4.342;2022-11-20T06:20:30;5.60;99.90
34833;DHT22;55941;50.800;4.342;2022-11-20T06:22:56;5.70;99.90
34833;DHT22;55941;50.800;4.342;2022-11-20T06:25:22;5.70;99.90
34833;DHT22;55941;50.800;4.342;2022-11-20T06:27:48;5.70;99.90
34833;DHT22;55941;50.800;4.342;2022-11-20T06:30:14;5.70;99.90
34833;DHT22;55941;50.800;4.342;2022-11-20T06:32:41;5.70;99.90
34833;DHT22;55941;50.800;4.342;2022-11-20T06:35:07;5.80;99.90
34833;DHT22;55941;50.800;4.342;2022-11-20T06:37:33;5.80;99.90
34833;DHT22;55941;50.800;4.342;2022-11-20T06:39:59;5.80;99.90
34833;DHT22;55941;50.800;4.342;2022-11-20T06:42:25;5.70;99.90
34833;DHT22;55941;50.800;4.342;2022-11-20T06:44:51;5.70;99.90
34833;DHT22;55941;50.800;4.342;2022-11-20T06:47:17;5.70;99.90
34833;DHT22;55941;50.800;4.342;2022-11-20T06:49:43;5.80;99.90
34833;DHT22;55941;50.800;4.342;2022-11-20T06:52:10;5.80;99.90
34833;DHT22;55941;50.800;4.342;2022-11-20T06:54:37;5.80;99.90
34833;DHT22;55941;50.800;4.342;2022-11-20T06:57:03;5.80;99.90
34833;DHT22;55941;50.800;4.342;2022-11-20T06:59:28;5.90;99.90
34833;DHT22;55941;50.800;4.342;2022-11-20T07:01:54;5.90;99.90
34833;DHT22;55941;50.800;4.342;2022-11-20T07:04:21;6.00;99.90
34833;DHT22;55941;50.800;4.342;2022-11-20T07:06:47;6.00;99.90
34833;DHT22;55941;50.800;4.342;2022-11-20T07:09:13;6.00;99.90
34833;DHT22;55941;50.800;4.342;2022-11-20T07:11:39;5.90;99.90
34833;DHT22;55941;50.800;4.342;2022-11-20T07:14:05;6.00;99.90
34833;DHT22;55941;50.800;4.342;2022-11-20T07:16:31;6.00;99.90
34833;DHT22;55941;50.800;4.342;2022-11-20T07:18:57;6.00;99.90
34833;DHT22;55941;50.800;4.342;2022-11-20T07:21:23;6.00;99.90
34833;DHT22;55941;50.800;4.342;2022-11-20T07:23:49;6.00;99.90
34833;DHT22;55941;50.800;4.342;2022-11-20T07:26:16;6.10;99.90
34833;DHT22;55941;50.800;4.342;2022-11-20T07:28:44;6.10;99.90
34833;DHT22;55941;50.800;4.342;2022-11-20T07:31:10;6.20;99.90
34833;DHT22;55941;50.800;4.342;2022-11-20T07:33:37;6.20;99.90
34833;DHT22;55941;50.800;4.342;2022-11-20T07:36:03;6.30;99.90
34833;DHT22;55941;50.800;4.342;2022-11-20T07:38:30;6.20;99.90
34833;DHT22;55941;50.800;4.342;2022-11-20T07:40:57;6.30;99.90
34833;DHT22;55941;50.800;4.342;2022-11-20T07:43:28;6.30;99.90
34833;DHT22;55941;50.800;4.342;2022-11-20T07:45:58;6.30;99.90
34833;DHT22;55941;50.800;4.342;2022-11-20T07:48:25;6.30;99.90
34833;DHT22;55941;50.800;4.342;2022-11-20T07:50:55;6.30;99.90
34833;DHT22;55941;50.800;4.342;2022-11-20T07:53:21;6.40;99.90
34833;DHT22;55941;50.800;4.342;2022-11-20T07:55:48;6.40;99.90
34833;DHT22;55941;50.800;4.342;2022-11-20T07:58:14;6.60;99.90
34833;DHT22;55941;50.800;4.342;2022-11-20T08:00:40;6.60;99.90
34833;DHT22;55941;50.800;4.342;2022-11-20T08:03:07;6.60;99.90
34833;DHT22;55941;50.800;4.342;2022-11-20T08:05:33;6.70;99.90
34833;DHT22;55941;50.800;4.342;2022-11-20T08:08:00;6.70;99.90
34833;DHT22;55941;50.800;4.342;2022-11-20T08:10:26;6.80;99.90
34833;DHT22;55941;50.800;4.342;2022-11-20T08:12:52;6.80;99.90
34833;DHT22;55941;50.800;4.342;2022-11-20T08:15:38;6.90;99.90
34833;DHT22;55941;50.800;4.342;2022-11-20T08:18:11;6.90;99.90
34833;DHT22;55941;50.800;4.342;2022-11-20T08:20:44;6.90;99.90
34833;DHT22;55941;50.800;4.342;2022-11-20T08:23:11;6.90;99.90
34833;DHT22;55941;50.800;4.342;2022-11-20T08:25:40;7.00;99.90
34833;DHT22;55941;50.800;4.342;2022-11-20T08:28:08;7.00;99.90
34833;DHT22;55941;50.800;4.342;2022-11-20T08:30:35;7.10;99.90
34833;DHT22;55941;50.800;4.342;2022-11-20T08:33:06;7.10;99.90
34833;DHT22;55941;50.800;4.342;2022-11-20T08:35:37;7.40;99.90
34833;DHT22;55941;50.800;4.342;2022-11-20T08:38:05;7.40;99.90
34833;DHT22;55941;50.800;4.342;2022-11-20T08:40:31;7.30;99.90
34833;DHT22;55941;50.800;4.342;2022-11-20T08:42:57;7.40;99.90
34833;DHT22;55941;50.800;4.342;2022-11-20T08:45:23;7.50;99.90
34833;DHT22;55941;50.800;4.342;2022-11-20T08:47:49;7.40;99.90
34833;DHT22;55941;50.800;4.342;2022-11-20T08:50:16;7.40;99.90
34833;DHT22;55941;50.800;4.342;2022-11-20T08:52:43;7.50;99.90
34833;DHT22;55941;50.800;4.342;2022-11-20T08:55:09;7.60;99.90
34833;DHT22;55941;50.800;4.342;2022-11-20T08:57:36;7.60;99.90
34833;DHT22;55941;50.800;4.342;2022-11-20T09:00:04;7.60;99.90
34833;DHT22;55941;50.800;4.342;2022-11-20T09:02:32;7.80;99.90
34833;DHT22;55941;50.800;4.342;2022-11-20T09:04:58;7.80;99.90
34833;DHT22;55941;50.800;4.342;2022-11-20T09:07:24;7.80;99.90
34833;DHT22;55941;50.800;4.342;2022-11-20T09:09:50;7.80;99.90
34833;DHT22;55941;50.800;4.342;2022-11-20T09:12:17;7.90;99.90
34833;DHT22;55941;50.800;4.342;2022-11-20T09:14:43;7.90;99.90
34833;DHT22;55941;50.800;4.342;2022-11-20T09:17:10;8.00;99.90
34833;DHT22;55941;50.800;4.342;2022-11-20T09:19:39;8.00;99.90
34833;DHT22;55941;50.800;4.342;2022-11-20T09:22:05;8.20;99.90
34833;DHT22;55941;50.800;4.342;2022-11-20T09:24:31;8.20;99.90
34833;DHT22;55941;50.800;4.342;2022-11-20T09:26:57;8.20;99.90
34833;DHT22;55941;50.800;4.342;2022-11-20T09:29:23;8.10;99.90
34833;DHT22;55941;50.800;4.342;2022-11-20T09:31:49;8.20;99.90
34833;DHT22;55941;50.800;4.342;2022-11-20T09:34:15;8.30;99.90
34833;DHT22;55941;50.800;4.342;2022-11-20T09:36:42;8.30;99.90
34833;DHT22;55941;50.800;4.342;2022-11-20T09:39:08;8.40;99.90
34833;DHT22;55941;50.800;4.342;2022-11-20T09:41:56;8.50;99.90
34833;DHT22;55941;50.800;4.342;2022-11-20T09:44:27;8.50;99.90
34833;DHT22;55941;50.800;4.342;2022-11-20T09:49:57;8.60;99.90
34833;DHT22;55941;50.800;4.342;2022-11-20T09:55:09;8.80;99.90
34833;DHT22;55941;50.800;4.342;2022-11-20T09:57:39;8.70;99.90
34833;DHT22;55941;50.800;4.342;2022-11-20T10:00:10;8.90;99.90
34833;DHT22;55941;50.800;4.342;2022-11-20T10:05:44;9.00;99.90
34833;DHT22;55941;50.800;4.342;2022-11-20T10:08:18;9.10;99.90
34833;DHT22;55941;50.800;4.342;2022-11-20T10:10:54;9.20;99.90
34833;DHT22;55941;50.800;4.342;2022-11-20T10:30:06;9.40;99.90
34833;DHT22;55941;50.800;4.342;2022-11-20T10:32:40;9.40;99.90
34833;DHT22;55941;50.800;4.342;2022-11-20T10:35:27;9.50;99.90
34833;DHT22;55941;50.800;4.342;2022-11-20T10:38:05;9.60;99.90
34833;DHT22;55941;50.800;4.342;2022-11-20T10:40:39;9.70;99.90
34833;DHT22;55941;50.800;4.342;2022-11-20T10:43:16;9.60;99.90
34833;DHT22;55941;50.800;4.342;2022-11-20T10:46:03;9.90;99.90
34833;DHT22;55941;50.800;4.342;2022-11-20T10:48:31;10.00;99.90
34833;DHT22;55941;50.800;4.342;2022-11-20T11:00:09;10.10;99.90
34833;DHT22;55941;50.800;4.342;2022-11-20T11:05:22;10.10;99.90
34833;DHT22;55941;50.800;4.342;2022-11-20T11:07:54;10.20;99.90
34833;DHT22;55941;50.800;4.342;2022-11-20T11:10:35;10.10;99.90
34833;DHT22;55941;50.800;4.342;2022-11-20T11:13:02;10.10;99.90
34833;DHT22;55941;50.800;4.342;2022-11-20T11:15:40;10.10;99.90
34833;DHT22;55941;50.800;4.342;2022-11-20T11:18:23;10.20;99.90
34833;DHT22;55941;50.800;4.342;2022-11-20T11:20:50;10.10;99.90
34833;DHT22;55941;50.800;4.342;2022-11-20T11:23:35;10.00;99.90
34833;DHT22;55941;50.800;4.342;2022-11-20T11:26:05;9.90;99.90
34833;DHT22;55941;50.800;4.342;2022-11-20T11:28:31;10.00;99.90
34833;DHT22;55941;50.800;4.342;2022-11-20T11:30:57;10.10;99.90
34833;DHT22;55941;50.800;4.342;2022-11-20T11:33:31;10.10;99.90
34833;DHT22;55941;50.800;4.342;2022-11-20T11:36:02;10.10;99.90
34833;DHT22;55941;50.800;4.342;2022-11-20T11:38:42;9.80;99.90
34833;DHT22;55941;50.800;4.342;2022-11-20T11:41:15;9.60;99.90
34833;DHT22;55941;50.800;4.342;2022-11-20T11:43:53;9.50;99.90
34833;DHT22;55941;50.800;4.342;2022-11-20T11:46:39;9.40;99.90
34833;DHT22;55941;50.800;4.342;2022-11-20T11:49:16;9.50;99.90
34833;DHT22;55941;50.800;4.342;2022-11-20T11:54:45;9.40;99.90
34833;DHT22;55941;50.800;4.342;2022-11-20T12:05:00;9.30;99.90
34833;DHT22;55941;50.800;4.342;2022-11-20T12:07:47;9.10;99.90
34833;DHT22;55941;50.800;4.342;2022-11-20T12:10:23;9.00;99.90
34833;DHT22;55941;50.800;4.342;2022-11-20T12:15:46;9.00;99.90
34833;DHT22;55941;50.800;4.342;2022-11-20T12:18:18;9.00;99.90
34833;DHT22;55941;50.800;4.342;2022-11-20T12:29:30;8.90;99.90
34833;DHT22;55941;50.800;4.342;2022-11-20T12:40:46;8.60;99.90
34833;DHT22;55941;50.800;4.342;2022-11-20T12:43:29;8.70;99.90
34833;DHT22;55941;50.800;4.342;2022-11-20T12:49:04;8.70;99.90
34833;DHT22;55941;50.800;4.342;2022-11-20T12:54:37;9.00;99.90
34833;DHT22;55941;50.800;4.342;2022-11-20T13:02:58;9.00;99.90
34833;DHT22;55941;50.800;4.342;2022-11-20T13:05:43;9.00;99.90
34833;DHT22;55941;50.800;4.342;2022-11-20T13:08:23;9.10;99.90
34833;DHT22;55941;50.800;4.342;2022-11-20T13:11:07;9.00;99.90
34833;DHT22;55941;50.800;4.342;2022-11-20T13:16:25;9.00;99.90
34833;DHT22;55941;50.800;4.342;2022-11-20T13:18:53;9.00;99.90
34833;DHT22;55941;50.800;4.342;2022-11-20T13:21:44;9.00;99.90
34833;DHT22;55941;50.800;4.342;2022-11-20T13:24:24;9.00;99.90
34833;DHT22;55941;50.800;4.342;2022-11-20T13:29:35;8.90;99.90
34833;DHT22;55941;50.800;4.342;2022-11-20T13:32:20;8.90;99.90
34833;DHT22;55941;50.800;4.342;2022-11-20T13:34:55;8.90;99.90
34833;DHT22;55941;50.800;4.342;2022-11-20T13:37:31;8.90;99.90
34833;DHT22;55941;50.800;4.342;2022-11-20T13:45:27;9.10;99.90
34833;DHT22;55941;50.800;4.342;2022-11-20T13:47:55;8.90;99.90
34833;DHT22;55941;50.800;4.342;2022-11-20T13:56:33;9.10;99.90
34833;DHT22;55941;50.800;4.342;2022-11-20T14:01:57;8.90;99.90
34833;DHT22;55941;50.800;4.342;2022-11-20T14:04:32;9.00;99.90
34833;DHT22;55941;50.800;4.342;2022-11-20T14:06:59;9.00;99.90
34833;DHT22;55941;50.800;4.342;2022-11-20T14:09:33;9.00;99.90
34833;DHT22;55941;50.800;4.342;2022-11-20T14:11:59;9.00;99.90
34833;DHT22;55941;50.800;4.342;2022-11-20T14:14:29;9.00;99.90
34833;DHT22;55941;50.800;4.342;2022-11-20T14:17:06;9.00;99.90
34833;DHT22;55941;50.800;4.342;2022-11-20T14:19:33;8.90;99.90
34833;DHT22;55941;50.800;4.342;2022-11-20T14:22:21;9.00;99.90
34833;DHT22;55941;50.800;4.342;2022-11-20T14:25:00;9.00;99.90
34833;DHT22;55941;50.800;4.342;2022-11-20T14:27:27;9.00;99.90
34833;DHT22;55941;50.800;4.342;2022-11-20T14:29:53;9.00;99.90
34833;DHT22;55941;50.800;4.342;2022-11-20T14:32:20;8.90;99.90
34833;DHT22;55941;50.800;4.342;2022-11-20T14:34:49;8.80;99.90
34833;DHT22;55941;50.800;4.342;2022-11-20T14:37:24;8.80;99.90
34833;DHT22;55941;50.800;4.342;2022-11-20T14:39:55;8.90;99.90
34833;DHT22;55941;50.800;4.342;2022-11-20T14:42:25;8.90;99.90
34833;DHT22;55941;50.800;4.342;2022-11-20T14:44:55;8.90;99.90
34833;DHT22;55941;50.800;4.342;2022-11-20T14:47:27;9.10;99.90
34833;DHT22;55941;50.800;4.342;2022-11-20T14:49:55;9.00;99.90
34833;DHT22;55941;50.800;4.342;2022-11-20T14:52:23;9.10;99.90
34833;DHT22;55941;50.800;4.342;2022-11-20T15:00:03;9.10;99.90
34833;DHT22;55941;50.800;4.342;2022-11-20T15:02:30;9.00;99.90
34833;DHT22;55941;50.800;4.342;2022-11-20T15:05:00;9.10;99.90
34833;DHT22;55941;50.800;4.342;2022-11-20T15:07:33;9.10;99.90
34833;DHT22;55941;50.800;4.342;2022-11-20T15:10:10;9.20;99.90
34833;DHT22;55941;50.800;4.342;2022-11-20T15:12:52;9.20;99.90
34833;DHT22;55941;50.800;4.342;2022-11-20T15:18:17;9.30;99.90
34833;DHT22;55941;50.800;4.342;2022-11-20T15:20:44;9.30;99.90
34833;DHT22;55941;50.800;4.342;2022-11-20T15:23:13;9.40;99.90
34833;DHT22;55941;50.800;4.342;2022-11-20T15:25:39;9.50;99.90
34833;DHT22;55941;50.800;4.342;2022-11-20T15:28:17;9.60;99.90
34833;DHT22;55941;50.800;4.342;2022-11-20T15:30:45;9.60;99.90
34833;DHT22;55941;50.800;4.342;2022-11-20T15:33:11;9.60;99.90
34833;DHT22;55941;50.800;4.342;2022-11-20T15:35:37;9.60;99.90
34833;DHT22;55941;50.800;4.342;2022-11-20T15:38:03;9.60;99.90
34833;DHT22;55941;50.800;4.342;2022-11-20T15:40:29;9.60;99.90
34833;DHT22;55941;50.800;4.342;2022-11-20T15:42:55;9.70;99.90
34833;DHT22;55941;50.800;4.342;2022-11-20T15:45:51;9.70;99.90
34833;DHT22;55941;50.800;4.342;2022-11-20T15:48:21;9.80;99.90
34833;DHT22;55941;50.800;4.342;2022-11-20T15:50:52;9.80;99.90
34833;DHT22;55941;50.800;4.342;2022-11-20T15:53:19;9.80;99.90
34833;DHT22;55941;50.800;4.342;2022-11-20T15:55:45;9.70;99.90
34833;DHT22;55941;50.800;4.342;2022-11-20T15:58:11;9.80;99.90
34833;DHT22;55941;50.800;4.342;2022-11-20T16:00:37;9.70;99.90
34833;DHT22;55941;50.800;4.342;2022-11-20T16:03:03;9.80;99.90
34833;DHT22;55941;50.800;4.342;2022-11-20T16:05:29;9.80;99.90
34833;DHT22;55941;50.800;4.342;2022-11-20T16:07:55;9.90;99.90
34833;DHT22;55941;50.800;4.342;2022-11-20T16:10:22;9.90;99.90
34833;DHT22;55941;50.800;4.342;2022-11-20T16:12:49;9.90;99.90
34833;DHT22;55941;50.800;4.342;2022-11-20T16:15:33;9.90;99.90
34833;DHT22;55941;50.800;4.342;2022-11-20T16:18:22;9.90;99.90
34833;DHT22;55941;50.800;4.342;2022-11-20T16:20:50;9.80;99.90
34833;DHT22;55941;50.800;4.342;2022-11-20T16:23:19;9.90;99.90
34833;DHT22;55941;50.800;4.342;2022-11-20T16:25:47;9.90;99.90
34833;DHT22;55941;50.800;4.342;2022-11-20T16:28:14;9.80;99.90
34833;DHT22;55941;50.800;4.342;2022-11-20T16:30:40;9.90;99.90
34833;DHT22;55941;50.800;4.342;2022-11-20T16:33:11;9.90;99.90
34833;DHT22;55941;50.800;4.342;2022-11-20T16:35:37;9.90;99.90
34833;DHT22;55941;50.800;4.342;2022-11-20T16:38:04;9.90;99.90
34833;DHT22;55941;50.800;4.342;2022-11-20T16:40:30;9.90;99.90
34833;DHT22;55941;50.800;4.342;2022-11-20T16:42:55;9.90;99.90
34833;DHT22;55941;50.800;4.342;2022-11-20T16:45:23;9.80;99.90
34833;DHT22;55941;50.800;4.342;2022-11-20T16:47:49;9.80;99.90
34833;DHT22;55941;50.800;4.342;2022-11-20T16:50:15;9.60;99.90
34833;DHT22;55941;50.800;4.342;2022-11-20T16:52:41;9.80;99.90
34833;DHT22;55941;50.800;4.342;2022-11-20T16:55:07;9.70;99.90
34833;DHT22;55941;50.800;4.342;2022-11-20T16:57:34;9.70;99.90
34833;DHT22;55941;50.800;4.342;2022-11-20T17:00:00;9.80;99.90
34833;DHT22;55941;50.800;4.342;2022-11-20T17:02:29;9.90;99.90
34833;DHT22;55941;50.800;4.342;2022-11-20T17:04:55;9.80;99.90
34833;DHT22;55941;50.800;4.342;2022-11-20T17:07:20;9.80;99.90
34833;DHT22;55941;50.800;4.342;2022-11-20T17:09:47;9.80;99.90
34833;DHT22;55941;50.800;4.342;2022-11-20T17:12:12;9.80;99.90
34833;DHT22;55941;50.800;4.342;2022-11-20T17:14:38;9.60;99.90
34833;DHT22;55941;50.800;4.342;2022-11-20T17:17:04;9.80;99.90
34833;DHT22;55941;50.800;4.342;2022-11-20T17:19:30;9.70;99.90
34833;DHT22;55941;50.800;4.342;2022-11-20T17:21:56;9.70;99.90
34833;DHT22;55941;50.800;4.342;2022-11-20T17:24:22;9.60;99.90
34833;DHT22;55941;50.800;4.342;2022-11-20T17:26:48;9.60;99.90
34833;DHT22;55941;50.800;4.342;2022-11-20T17:29:16;9.60;99.90
34833;DHT22;55941;50.800;4.342;2022-11-20T17:31:43;9.50;99.90
34833;DHT22;55941;50.800;4.342;2022-11-20T17:34:13;9.50;99.90
34833;DHT22;55941;50.800;4.342;2022-11-20T17:36:40;9.40;99.90
34833;DHT22;55941;50.800;4.342;2022-11-20T17:39:13;9.50;99.90
34833;DHT22;55941;50.800;4.342;2022-11-20T17:41:39;9.50;99.90
34833;DHT22;55941;50.800;4.342;2022-11-20T17:44:05;9.50;99.90